Time;durP1;ratioP1;P1;durP2;ratioP2;P2;SDS_P1;SDS_P2;PMS_P1;PMS_P2;Temp;Humidity;BMP_temperature;BMP_pressure;BME280_temperature;BME280_humidity;BME280_pressure;Samples;Min_cycle;Max_cycle;Signal;HPM_P1;HPM_P2
2024/01/09 00:02:18;;;;;;;19.63;12.23;;;;;;;-6.48;100.00;98165.09;4979943;28;20408;-80
2024/01/09 00:04:45;;;;;;;20.17;11.88;;;;;;;-6.49;100.00;98172.94;4997643;28;20915;-79
2024/01/09 00:07:12;;;;;;;21.27;13.35;;;;;;;-6.49;100.00;98180.66;4998994;28;20438;-79
2024/01/09 00:09:38;;;;;;;20.77;13.27;;;;;;;-6.51;100.00;98175.63;4999619;28;20411;-79
2024/01/09 00:12:05;;;;;;;23.33;13.88;;;;;;;-6.53;100.00;98176.69;4998469;28;20411;-80
2024/01/09 00:14:31;;;;;;;21.57;13.40;;;;;;;-6.55;100.00;98173.44;4998221;28;20426;-79
2024/01/09 00:16:57;;;;;;;23.73;13.93;;;;;;;-6.56;100.00;98174.38;4998616;28;20449;-78
2024/01/09 00:19:25;;;;;;;20.45;12.82;;;;;;;-6.58;100.00;98169.34;4997513;28;20462;-80
2024/01/09 00:21:52;;;;;;;19.25;12.25;;;;;;;-6.59;100.00;98174.63;4999509;28;20411;-79
2024/01/09 00:24:18;;;;;;;18.23;11.90;;;;;;;-6.61;100.00;98171.38;5000187;28;20406;-79
2024/01/09 00:26:45;;;;;;;18.23;11.82;;;;;;;-6.63;100.00;98168.09;4999027;28;20921;-78
2024/01/09 00:29:11;;;;;;;25.20;15.55;;;;;;;-6.64;100.00;98169.84;4998303;28;20449;-79
2024/01/09 00:31:37;;;;;;;23.17;13.23;;;;;;;-6.67;100.00;98170.91;4997663;28;20417;-77
2024/01/09 00:34:04;;;;;;;22.33;13.68;;;;;;;-6.67;100.00;98170.09;4995768;28;20792;-79
2024/01/09 00:36:31;;;;;;;19.75;12.68;;;;;;;-6.69;100.00;98170.22;4996190;28;20395;-79
2024/01/09 00:38:57;;;;;;;21.63;12.85;;;;;;;-6.73;100.00;98166.25;4999850;28;20457;-79
2024/01/09 00:41:24;;;;;;;17.40;11.65;;;;;;;-6.75;100.00;98165.56;5010598;28;20406;-79
2024/01/09 00:43:50;;;;;;;20.05;12.40;;;;;;;-6.77;100.00;98161.50;5009721;28;20409;-79
2024/01/09 00:46:16;;;;;;;19.80;11.98;;;;;;;-6.78;100.00;98170.97;5003887;28;20468;-79
2024/01/09 00:48:42;;;;;;;18.63;11.55;;;;;;;-6.79;100.00;98171.09;4998421;28;20403;-79
2024/01/09 00:51:08;;;;;;;19.25;11.60;;;;;;;-6.82;100.00;98161.84;4997991;28;20407;-80
2024/01/09 00:53:36;;;;;;;20.33;11.65;;;;;;;-6.83;100.00;98167.94;4997134;28;20406;-80
2024/01/09 00:56:02;;;;;;;17.80;11.25;;;;;;;-6.84;100.00;98166.28;4996243;28;20418;-80
2024/01/09 00:58:28;;;;;;;20.08;12.30;;;;;;;-6.86;100.00;98167.38;5004927;28;20410;-79
2024/01/09 01:00:54;;;;;;;17.80;11.53;;;;;;;-6.89;100.00;98165.03;5012812;28;20437;-78
2024/01/09 01:03:20;;;;;;;20.02;12.27;;;;;;;-6.90;100.00;98160.81;5009612;28;20394;-78
2024/01/09 01:05:46;;;;;;;20.17;12.95;;;;;;;-6.92;100.00;98167.88;4995570;28;20418;-78
2024/01/09 01:08:13;;;;;;;21.25;12.57;;;;;;;-6.94;100.00;98168.00;4996217;28;20425;-78
2024/01/09 01:10:40;;;;;;;21.40;12.90;;;;;;;-6.95;100.00;98173.25;4997175;28;20801;-78
2024/01/09 01:13:06;;;;;;;18.98;12.10;;;;;;;-6.98;100.00;98170.91;4996682;28;21062;-78
2024/01/09 01:15:32;;;;;;;18.20;11.30;;;;;;;-7.00;100.00;98172.81;4996358;28;20791;-78
2024/01/09 01:17:59;;;;;;;20.48;12.32;;;;;;;-7.01;100.00;98173.75;4996633;28;20493;-78
2024/01/09 01:20:25;;;;;;;17.85;10.95;;;;;;;-7.03;100.00;98166.13;4996248;28;20398;-78
2024/01/09 01:22:51;;;;;;;20.27;11.90;;;;;;;-7.05;100.00;98176.53;4996155;28;20474;-78
2024/01/09 01:25:17;;;;;;;17.33;10.67;;;;;;;-7.07;100.00;98181.00;4996413;28;20491;-80
2024/01/09 01:27:45;;;;;;;15.52;10.32;;;;;;;-7.08;100.00;98173.41;4997719;28;20482;-80
2024/01/09 01:30:11;;;;;;;16.33;10.70;;;;;;;-7.12;100.00;98177.97;4998101;28;20407;-80
2024/01/09 01:32:37;;;;;;;15.90;10.23;;;;;;;-7.13;100.00;98184.06;4997156;28;20407;-80
2024/01/09 01:35:04;;;;;;;16.33;10.45;;;;;;;-7.15;100.00;98190.28;4996994;28;20469;-80
2024/01/09 01:37:30;;;;;;;17.60;10.50;;;;;;;-7.17;100.00;98187.00;4997394;28;20867;-80
2024/01/09 01:39:56;;;;;;;18.13;10.60;;;;;;;-7.17;100.00;98197.28;4997200;28;20827;-80
2024/01/09 01:42:22;;;;;;;17.20;11.13;;;;;;;-7.19;100.00;98184.53;4996952;28;20405;-80
2024/01/09 01:44:50;;;;;;;18.48;11.57;;;;;;;-7.19;100.00;98184.53;4997035;28;20402;-80
2024/01/09 01:47:17;;;;;;;21.00;11.82;;;;;;;-7.20;100.00;98192.38;4996489;28;20403;-78
2024/01/09 01:49:44;;;;;;;20.60;12.73;;;;;;;-7.21;100.00;98191.56;4996583;28;20498;-79
2024/01/09 01:52:11;;;;;;;21.63;12.60;;;;;;;-7.22;100.00;98191.69;4997848;28;20540;-78
2024/01/09 01:54:40;;;;;;;22.33;12.65;;;;;;;-7.23;100.00;98187.47;4997616;28;20465;-80
2024/01/09 01:57:08;;;;;;;24.80;14.73;;;;;;;-7.25;100.00;98185.03;4997270;28;20485;-79
2024/01/09 01:59:37;;;;;;;22.23;13.27;;;;;;;-7.25;100.00;98189.34;4996611;28;20485;-80
2024/01/09 02:02:06;;;;;;;20.20;12.63;;;;;;;-7.28;100.00;98187.00;4997452;28;20437;-80
2024/01/09 02:04:33;;;;;;;21.23;12.65;;;;;;;-7.30;100.00;98194.88;4996327;28;20811;-80
2024/01/09 02:06:59;;;;;;;22.35;12.63;;;;;;;-7.32;100.00;98194.16;4998023;28;20875;-80
2024/01/09 02:09:26;;;;;;;20.10;12.40;;;;;;;-7.34;100.00;98192.63;4996907;28;20772;-80
2024/01/09 02:11:53;;;;;;;22.87;13.37;;;;;;;-7.36;100.00;98181.66;4997774;28;20432;-80
2024/01/09 02:14:19;;;;;;;20.13;12.20;;;;;;;-7.38;100.00;98191.25;4996358;28;20441;-80
2024/01/09 02:16:45;;;;;;;20.07;12.00;;;;;;;-7.40;100.00;98187.97;4996494;28;20434;-80
2024/01/09 02:19:12;;;;;;;19.25;11.60;;;;;;;-7.42;100.00;98193.22;4997048;28;20412;-80
2024/01/09 02:21:39;;;;;;;18.80;11.53;;;;;;;-7.43;100.00;98187.25;4996653;28;20890;-80
2024/01/09 02:24:05;;;;;;;16.20;10.65;;;;;;;-7.45;100.00;98188.34;4997078;28;20908;-80
2024/01/09 02:26:34;;;;;;;17.35;11.13;;;;;;;-7.46;100.00;98189.28;4996821;28;20402;-80
2024/01/09 02:29:05;;;;;;;21.17;12.40;;;;;;;-7.49;100.00;98182.59;5009534;28;20406;-80
2024/01/09 02:31:33;;;;;;;17.92;11.38;;;;;;;-7.51;100.00;98181.91;5011406;28;20418;-80
2024/01/09 02:34:01;;;;;;;21.98;12.32;;;;;;;-7.52;100.00;98187.19;5007911;28;20445;-80
2024/01/09 02:36:27;;;;;;;17.60;11.32;;;;;;;-7.56;100.00;98184.03;5010464;28;20568;-80
2024/01/09 02:38:53;;;;;;;18.20;11.68;;;;;;;-7.57;100.00;98186.69;5015967;28;20413;-80
2024/01/09 02:41:19;;;;;;;18.58;11.77;;;;;;;-7.58;100.00;98180.75;5018111;28;20405;-80
2024/01/09 02:43:45;;;;;;;18.83;11.77;;;;;;;-7.59;100.00;98179.09;5003066;28;20413;-80
2024/01/09 02:46:11;;;;;;;19.08;11.85;;;;;;;-7.60;100.00;98177.50;5002202;28;20398;-80
2024/01/09 02:48:39;;;;;;;20.45;11.93;;;;;;;-7.60;100.00;98174.09;5000466;28;20456;-80
2024/01/09 02:51:05;;;;;;;20.30;12.00;;;;;;;-7.61;100.00;98180.19;5000998;28;20406;-80
2024/01/09 02:53:31;;;;;;;18.00;11.52;;;;;;;-7.64;100.00;98172.69;5000995;28;20413;-80
2024/01/09 02:55:57;;;;;;;18.23;11.18;;;;;;;-7.65;100.00;98168.47;5000396;28;20430;-80
2024/01/09 02:58:23;;;;;;;19.35;11.25;;;;;;;-7.66;100.00;98174.56;5000596;28;20445;-80
2024/01/09 03:00:49;;;;;;;19.38;11.25;;;;;;;-7.67;100.00;98168.63;5000516;28;20406;-80
2024/01/09 03:03:16;;;;;;;15.88;9.90;;;;;;;-7.67;100.00;98166.06;5000367;28;20794;-80
2024/01/09 03:05:43;;;;;;;17.67;10.57;;;;;;;-7.69;100.00;98165.34;5000007;28;20457;-80
2024/01/09 03:08:09;;;;;;;16.58;10.18;;;;;;;-7.69;100.00;98162.78;5000515;28;20465;-80
2024/01/09 03:10:35;;;;;;;15.68;10.23;;;;;;;-7.71;100.00;98167.22;4999165;28;20407;-80
2024/01/09 03:13:01;;;;;;;14.05;9.07;;;;;;;-7.72;100.00;98169.88;5000103;28;20457;-80
2024/01/09 03:15:28;;;;;;;17.15;10.63;;;;;;;-7.74;100.00;98167.44;4997089;28;20422;-78
2024/01/09 03:17:54;;;;;;;16.63;10.88;;;;;;;-7.75;100.00;98172.72;4997956;28;20402;-78
2024/01/09 03:20:20;;;;;;;15.52;9.93;;;;;;;-7.78;100.00;98173.75;4998282;28;20409;-78
2024/01/09 03:22:47;;;;;;;15.27;9.45;;;;;;;-7.79;100.00;98161.00;4999062;28;20414;-80
2024/01/09 03:25:14;;;;;;;15.77;9.95;;;;;;;-7.83;100.00;98168.16;4999315;28;20407;-80
2024/01/09 03:27:41;;;;;;;13.18;8.75;;;;;;;-7.85;100.00;98172.59;4999217;28;20399;-80
2024/01/09 03:30:08;;;;;;;16.05;9.13;;;;;;;-7.88;100.00;98167.66;5000037;28;20826;-79
2024/01/09 03:32:34;;;;;;;14.23;9.05;;;;;;;-7.90;100.00;98170.38;4999601;28;20406;-80
2024/01/09 03:35:00;;;;;;;15.63;9.85;;;;;;;-7.91;100.00;98166.16;4999149;28;20421;-80
2024/01/09 03:37:26;;;;;;;15.25;9.63;;;;;;;-7.92;100.00;98164.53;4999296;28;20406;-79
2024/01/09 03:39:54;;;;;;;16.05;10.52;;;;;;;-7.92;100.00;98163.72;4999068;28;20410;-80
2024/01/09 03:42:20;;;;;;;17.63;10.77;;;;;;;-7.93;100.00;98172.34;4999131;28;20422;-79
2024/01/09 03:44:48;;;;;;;16.17;9.90;;;;;;;-7.93;100.00;98165.47;4999148;28;20413;-79
2024/01/09 03:47:14;;;;;;;18.10;10.35;;;;;;;-7.92;100.00;98167.09;4999217;28;20398;-79
2024/01/09 03:49:40;;;;;;;17.37;10.00;;;;;;;-7.91;100.00;98162.78;4999609;28;20407;-79
2024/01/09 03:52:06;;;;;;;17.73;10.52;;;;;;;-7.88;100.00;98163.34;4999720;28;20462;-80
2024/01/09 03:54:32;;;;;;;18.85;10.88;;;;;;;-7.85;100.00;98160.56;4999009;28;20514;-79
2024/01/09 03:57:00;;;;;;;17.73;10.30;;;;;;;-7.81;100.00;98166.25;5000100;28;20930;-79
2024/01/09 03:59:26;;;;;;;20.23;12.07;;;;;;;-7.78;100.00;98158.34;4999361;28;20823;-79
2024/01/09 04:01:52;;;;;;;21.38;12.35;;;;;;;-7.74;100.00;98169.22;5000206;28;20414;-79
2024/01/09 04:04:18;;;;;;;19.40;11.70;;;;;;;-7.71;100.00;98164.63;4999532;28;20907;-79
2024/01/09 04:06:44;;;;;;;16.38;10.45;;;;;;;-7.69;100.00;98167.09;4999885;28;20461;-79
2024/01/09 04:09:12;;;;;;;17.85;10.68;;;;;;;-7.68;100.00;98171.31;4999957;28;20437;-79
2024/01/09 04:11:43;;;;;;;21.70;12.13;;;;;;;-7.67;100.00;98170.38;4998990;28;20415;-79
2024/01/09 04:14:10;;;;;;;19.17;11.67;;;;;;;-7.69;100.00;98164.53;5000932;28;20394;-79
2024/01/09 04:16:36;;;;;;;18.50;11.23;;;;;;;-7.73;100.00;98171.63;5010792;28;20430;-79
2024/01/09 04:19:02;;;;;;;18.92;11.50;;;;;;;-7.74;100.00;98166.63;5016162;28;20401;-79
2024/01/09 04:21:29;;;;;;;17.63;11.35;;;;;;;-7.79;100.00;98161.84;5006785;28;20406;-79
2024/01/09 04:23:55;;;;;;;16.30;10.27;;;;;;;-7.83;100.00;98165.59;4998361;28;20398;-80
2024/01/09 04:26:21;;;;;;;16.67;10.65;;;;;;;-7.87;100.00;98166.75;4999125;28;20899;-79
2024/01/09 04:28:48;;;;;;;16.92;10.25;;;;;;;-7.90;100.00;98167.00;4999604;28;20398;-79
2024/01/09 04:31:15;;;;;;;17.27;10.63;;;;;;;-7.95;100.00;98174.22;4999614;28;20402;-80
2024/01/09 04:33:41;;;;;;;15.68;10.45;;;;;;;-7.98;100.00;98170.13;5001169;28;20934;-79
2024/01/09 04:36:08;;;;;;;15.23;9.88;;;;;;;-8.00;100.00;98173.75;5001516;28;20812;-79
2024/01/09 04:38:34;;;;;;;15.13;10.15;;;;;;;-8.02;100.00;98170.47;5007785;28;20382;-79
2024/01/09 04:41:00;;;;;;;15.48;10.25;;;;;;;-8.04;100.00;98173.16;5012655;28;20394;-79
2024/01/09 04:43:26;;;;;;;16.35;9.90;;;;;;;-8.05;100.00;98170.72;5011651;28;20434;-79
2024/01/09 04:45:53;;;;;;;17.50;10.80;;;;;;;-8.07;100.00;98163.13;5007978;28;20410;-79
2024/01/09 04:48:21;;;;;;;17.63;10.80;;;;;;;-8.09;100.00;98167.53;5001416;28;20425;-79
2024/01/09 04:50:47;;;;;;;18.38;9.90;;;;;;;-8.09;100.00;98167.53;4999633;28;20406;-79
2024/01/09 04:53:13;;;;;;;16.23;9.63;;;;;;;-8.10;100.00;98162.53;5000531;28;20401;-79
2024/01/09 04:55:39;;;;;;;18.03;11.13;;;;;;;-8.11;100.00;98160.88;5000147;28;20514;-78
2024/01/09 04:58:05;;;;;;;19.03;10.93;;;;;;;-8.12;100.00;98164.41;4996785;28;20922;-77
2024/01/09 05:00:31;;;;;;;18.63;10.60;;;;;;;-8.13;100.00;98165.34;4996584;28;20493;-79
2024/01/09 05:02:58;;;;;;;18.65;11.02;;;;;;;-8.13;100.00;98167.91;4996882;28;20402;-78
2024/01/09 05:05:25;;;;;;;19.80;11.35;;;;;;;-8.15;100.00;98165.44;4996605;28;20409;-79
2024/01/09 05:07:51;;;;;;;19.38;11.43;;;;;;;-8.14;100.00;98164.53;4996273;28;20505;-79
2024/01/09 05:10:17;;;;;;;24.00;13.00;;;;;;;-8.12;100.00;98161.84;4997803;28;20403;-79
2024/01/09 05:12:44;;;;;;;22.70;12.87;;;;;;;-8.12;100.00;98165.22;5001455;28;20835;-78
2024/01/09 05:15:10;;;;;;;21.45;12.38;;;;;;;-8.12;100.00;98157.53;5004057;28;20422;-78
2024/01/09 05:17:38;;;;;;;21.75;13.13;;;;;;;-8.13;100.00;98155.06;5009705;28;20398;-79
2024/01/09 05:20:06;;;;;;;20.38;11.63;;;;;;;-8.13;100.00;98168.72;5004655;28;20403;-79
2024/01/09 05:22:37;;;;;;;19.83;11.77;;;;;;;-8.13;100.00;98158.44;4995227;28;20503;-79
2024/01/09 05:25:04;;;;;;;21.08;11.60;;;;;;;-8.13;100.00;98160.19;4987191;28;20450;-79
2024/01/09 05:27:30;;;;;;;20.92;11.75;;;;;;;-8.14;100.00;98171.41;4980612;28;20400;-78
2024/01/09 05:29:57;;;;;;;18.30;11.20;;;;;;;-8.16;100.00;98168.13;4982293;28;20402;-79
2024/01/09 05:32:23;;;;;;;19.33;11.40;;;;;;;-8.16;100.00;98158.66;4997155;28;20423;-79
2024/01/09 05:34:49;;;;;;;23.37;11.47;;;;;;;-8.16;100.00;98176.66;4980110;28;20456;-79
2024/01/09 05:37:15;;;;;;;16.17;10.20;;;;;;;-8.19;100.00;98164.03;4978731;28;20454;-81
2024/01/09 05:39:44;;;;;;;18.98;11.27;;;;;;;-8.20;100.00;98167.56;4993348;28;20430;-79
2024/01/09 05:42:10;;;;;;;20.98;11.45;;;;;;;-8.21;100.00;98176.19;4996713;28;20505;-80
2024/01/09 05:44:36;;;;;;;21.08;11.98;;;;;;;-8.20;100.00;98170.13;5008981;28;20410;-79
2024/01/09 05:47:03;;;;;;;19.60;10.95;;;;;;;-8.21;100.00;98177.00;4996849;28;20405;-78
2024/01/09 05:49:29;;;;;;;21.58;12.05;;;;;;;-8.21;100.00;98181.31;4995634;28;20399;-79
2024/01/09 05:51:55;;;;;;;20.58;11.23;;;;;;;-8.22;100.00;98177.94;4997066;28;20464;-80
2024/01/09 05:54:21;;;;;;;19.55;11.90;;;;;;;-8.23;100.00;98184.00;4996527;28;20409;-79
2024/01/09 05:56:49;;;;;;;18.17;11.43;;;;;;;-8.25;100.00;98180.72;4996953;28;20458;-80
2024/01/09 05:59:15;;;;;;;19.92;11.63;;;;;;;-8.25;100.00;98175.59;4996989;28;20429;-78
2024/01/09 06:01:41;;;;;;;19.70;10.98;;;;;;;-8.25;100.00;98174.75;4993684;28;20430;-80
2024/01/09 06:04:07;;;;;;;17.33;10.53;;;;;;;-8.28;100.00;98175.81;4977428;28;20946;-79
2024/01/09 06:06:34;;;;;;;17.98;10.43;;;;;;;-8.28;100.00;98180.16;4982490;28;20503;-79
2024/01/09 06:09:00;;;;;;;16.30;9.82;;;;;;;-8.29;100.00;98187.03;4977228;28;20412;-79
2024/01/09 06:11:26;;;;;;;16.15;10.07;;;;;;;-8.30;100.00;98180.25;4980370;28;20429;-78
2024/01/09 06:13:55;;;;;;;18.42;11.00;;;;;;;-8.31;100.00;98177.81;4982989;28;20455;-78
2024/01/09 06:16:21;;;;;;;19.75;11.00;;;;;;;-8.32;100.00;98179.56;4979273;28;20511;-77
2024/01/09 06:18:48;;;;;;;17.40;10.52;;;;;;;-8.32;100.00;98181.31;4980210;28;20408;-78
2024/01/09 06:21:14;;;;;;;18.13;10.55;;;;;;;-8.34;100.00;98180.59;4983376;28;20408;-78
2024/01/09 06:23:40;;;;;;;22.48;12.32;;;;;;;-8.34;100.00;98183.16;4996450;28;20403;-78
2024/01/09 06:26:06;;;;;;;20.95;12.30;;;;;;;-8.34;100.00;98180.59;4996908;28;20410;-78
2024/01/09 06:28:34;;;;;;;19.20;11.32;;;;;;;-8.36;100.00;98182.50;4998296;28;20402;-77
2024/01/09 06:31:01;;;;;;;18.83;10.35;;;;;;;-8.38;100.00;98176.66;4996753;28;20433;-77
2024/01/09 06:33:28;;;;;;;19.05;10.50;;;;;;;-8.38;100.00;98186.91;4996028;28;20412;-77
2024/01/09 06:35:54;;;;;;;18.30;10.40;;;;;;;-8.40;100.00;98184.44;4996333;28;20428;-77
2024/01/09 06:38:20;;;;;;;17.90;10.68;;;;;;;-8.40;100.00;98186.19;4996385;28;20440;-77
2024/01/09 06:40:46;;;;;;;17.40;10.50;;;;;;;-8.40;100.00;98186.19;4996086;28;20436;-77
2024/01/09 06:43:12;;;;;;;18.70;10.30;;;;;;;-8.42;100.00;98188.88;4995824;28;20398;-77
2024/01/09 06:45:38;;;;;;;19.55;10.60;;;;;;;-8.42;100.00;98190.66;4995880;28;20485;-77
2024/01/09 06:48:07;;;;;;;16.60;10.25;;;;;;;-8.44;100.00;98190.75;4996393;28;20402;-77
2024/01/09 06:50:33;;;;;;;17.48;10.05;;;;;;;-8.45;100.00;98189.13;4999188;28;20405;-78
2024/01/09 06:53:00;;;;;;;17.13;10.10;;;;;;;-8.46;100.00;98190.03;4996434;28;20430;-77
2024/01/09 06:55:26;;;;;;;17.27;9.93;;;;;;;-8.46;100.00;98195.19;4995701;28;20477;-77
2024/01/09 06:57:52;;;;;;;15.25;9.35;;;;;;;-8.47;100.00;98190.97;4995490;28;20402;-76
2024/01/09 07:00:19;;;;;;;19.20;10.30;;;;;;;-8.46;100.00;98199.50;4995046;28;20819;-77
2024/01/09 07:02:45;;;;;;;16.23;10.05;;;;;;;-8.47;100.00;98200.41;4995674;28;20751;-77
2024/01/09 07:05:12;;;;;;;17.17;10.10;;;;;;;-8.48;100.00;98201.34;4995369;28;20406;-77
2024/01/09 07:07:38;;;;;;;15.68;9.27;;;;;;;-8.51;100.00;98202.41;4995390;28;20403;-77
2024/01/09 07:10:05;;;;;;;17.75;10.32;;;;;;;-8.50;100.00;98195.53;4995523;28;20399;-77
2024/01/09 07:12:31;;;;;;;15.75;9.55;;;;;;;-8.50;100.00;98206.63;4994902;28;20410;-76
2024/01/09 07:14:58;;;;;;;17.35;10.05;;;;;;;-8.50;100.00;98196.34;4994177;28;20421;-76
2024/01/09 07:17:24;;;;;;;18.50;10.43;;;;;;;-8.48;100.00;98209.88;4994564;28;20407;-77
2024/01/09 07:19:50;;;;;;;15.70;9.52;;;;;;;-8.45;100.00;98208.84;4994478;28;20409;-76
2024/01/09 07:22:18;;;;;;;17.48;9.93;;;;;;;-8.44;100.00;98211.28;4993908;28;20425;-77
2024/01/09 07:24:44;;;;;;;16.40;9.65;;;;;;;-8.42;100.00;98208.63;4994010;28;20441;-76
2024/01/09 07:27:12;;;;;;;16.30;9.47;;;;;;;-8.41;100.00;98208.47;4994082;28;20403;-77
2024/01/09 07:29:38;;;;;;;15.27;9.15;;;;;;;-8.38;100.00;98210.00;4994235;28;20485;-77
2024/01/09 07:32:05;;;;;;;16.08;9.90;;;;;;;-8.35;100.00;98214.94;4994178;28;20395;-77
2024/01/09 07:34:31;;;;;;;17.17;10.05;;;;;;;-8.32;100.00;98212.13;4994292;28;20401;-77
2024/01/09 07:36:57;;;;;;;16.60;10.00;;;;;;;-8.29;100.00;98220.41;4981412;28;20933;-77
2024/01/09 07:39:24;;;;;;;16.80;9.55;;;;;;;-8.27;100.00;98210.81;4976398;28;20407;-77
2024/01/09 07:41:51;;;;;;;16.58;9.85;;;;;;;-8.24;100.00;98213.16;4983052;28;20406;-77
2024/01/09 07:44:17;;;;;;;18.13;10.38;;;;;;;-8.21;100.00;98220.66;4980666;28;20411;-77
2024/01/09 07:46:43;;;;;;;15.63;10.00;;;;;;;-8.17;100.00;98218.66;4976099;28;20408;-77
2024/01/09 07:49:10;;;;;;;17.70;10.25;;;;;;;-8.14;100.00;98225.34;4974789;28;20869;-76
2024/01/09 07:51:36;;;;;;;15.38;9.88;;;;;;;-8.11;100.00;98227.66;4975198;28;20503;-76
2024/01/09 07:54:03;;;;;;;15.68;9.55;;;;;;;-8.10;100.00;98224.97;4974981;28;20436;-77
2024/01/09 07:56:31;;;;;;;13.65;8.63;;;;;;;-8.06;100.00;98233.28;4974263;28;20420;-76
2024/01/09 07:58:57;;;;;;;14.90;9.00;;;;;;;-8.04;100.00;98232.22;4974368;28;20508;-76
2024/01/09 08:01:24;;;;;;;14.15;8.90;;;;;;;-8.00;100.00;98232.81;4974628;28;20834;-76
2024/01/09 08:03:50;;;;;;;14.73;9.23;;;;;;;-7.96;100.00;98236.78;4974744;28;20400;-76
2024/01/09 08:06:16;;;;;;;15.55;9.30;;;;;;;-7.94;100.00;98234.94;4974560;28;20408;-76
2024/01/09 08:08:43;;;;;;;15.27;9.03;;;;;;;-7.92;100.00;98231.31;4974667;28;20405;-76
2024/01/09 08:11:10;;;;;;;14.27;9.00;;;;;;;-7.88;100.00;98235.28;4974430;28;20463;-76
2024/01/09 08:13:38;;;;;;;15.55;8.95;;;;;;;-7.83;100.00;98232.41;4974231;28;20403;-76
2024/01/09 08:16:05;;;;;;;15.75;9.32;;;;;;;-7.77;100.00;98229.34;4974038;28;20417;-76
2024/01/09 08:18:32;;;;;;;16.53;9.17;;;;;;;-7.69;100.00;98239.88;4974136;28;20397;-76
2024/01/09 08:20:58;;;;;;;16.23;9.73;;;;;;;-7.58;100.00;98237.28;4973912;28;20408;-77
2024/01/09 08:23:25;;;;;;;16.77;10.15;;;;;;;-7.47;100.00;98239.88;4973626;28;20404;-77
2024/01/09 08:25:51;;;;;;;19.27;11.07;;;;;;;-7.34;100.00;98239.75;4973950;28;20406;-76
2024/01/09 08:28:17;;;;;;;15.52;9.88;;;;;;;-7.21;100.00;98235.28;4973593;28;20782;-76
2024/01/09 08:30:45;;;;;;;15.63;9.93;;;;;;;-7.07;100.00;98237.59;4983303;28;20402;-76
2024/01/09 08:33:11;;;;;;;15.88;10.02;;;;;;;-6.94;100.00;98237.47;4992741;28;20407;-76
2024/01/09 08:35:38;;;;;;;15.87;9.53;;;;;;;-6.81;100.00;98230.41;4992851;28;20423;-77
2024/01/09 08:38:04;;;;;;;17.13;10.63;;;;;;;-6.68;100.00;98236.19;4992679;28;20398;-77
2024/01/09 08:40:30;;;;;;;19.83;11.30;;;;;;;-6.57;100.00;98234.53;4993812;28;20493;-76
2024/01/09 08:42:56;;;;;;;16.88;10.55;;;;;;;-6.42;100.00;98241.84;4993711;28;20510;-78
2024/01/09 08:45:24;;;;;;;18.67;11.30;;;;;;;-6.29;100.00;98249.41;4995505;28;20410;-77
2024/01/09 08:47:51;;;;;;;20.13;11.57;;;;;;;-6.14;100.00;98244.75;4993108;28;20821;-76
2024/01/09 08:50:18;;;;;;;19.33;11.68;;;;;;;-5.98;100.00;98240.78;4992119;28;20775;-76
2024/01/09 08:52:44;;;;;;;17.40;10.93;;;;;;;-5.81;100.00;98241.97;4993461;28;20391;-77
2024/01/09 08:55:10;;;;;;;17.13;10.88;;;;;;;-5.64;100.00;98243.13;4993973;28;20509;-77
2024/01/09 08:57:36;;;;;;;18.58;10.93;;;;;;;-5.50;100.00;98243.59;4993187;28;20399;-76
2024/01/09 09:00:04;;;;;;;17.23;11.38;;;;;;;-5.34;100.00;98237.16;4993422;28;20493;-77
2024/01/09 09:02:30;;;;;;;17.73;11.48;;;;;;;-5.19;100.00;98241.00;4993853;28;20452;-78
2024/01/09 09:04:58;;;;;;;17.65;11.70;;;;;;;-5.05;100.00;98245.78;4993404;28;20413;-76
2024/01/09 09:07:24;;;;;;;17.88;11.70;;;;;;;-4.94;100.00;98245.66;4992525;28;20406;-75
2024/01/09 09:09:50;;;;;;;22.10;12.98;;;;;;;-4.84;100.00;98237.94;4993324;28;20413;-77
2024/01/09 09:12:16;;;;;;;19.47;12.13;;;;;;;-4.77;100.00;98236.47;4994128;28;20423;-77
2024/01/09 09:14:42;;;;;;;19.67;11.68;;;;;;;-4.71;100.00;98238.50;4996660;28;20401;-79
2024/01/09 09:17:10;;;;;;;20.45;13.48;;;;;;;-4.72;100.00;98237.69;4996195;28;20425;-78
2024/01/09 09:19:36;;;;;;;19.40;12.38;;;;;;;-4.78;100.00;98240.00;4996152;28;20414;-78
2024/01/09 09:22:04;;;;;;;19.40;12.48;;;;;;;-4.84;100.00;98243.94;4996622;28;20445;-78
2024/01/09 09:24:30;;;;;;;18.02;11.75;;;;;;;-4.91;100.00;98242.00;4998119;28;20403;-79
2024/01/09 09:26:57;;;;;;;21.90;13.68;;;;;;;-5.00;100.00;98245.38;4995927;28;20414;-78
2024/01/09 09:29:23;;;;;;;19.58;12.70;;;;;;;-5.08;100.00;98243.47;4995152;28;20402;-78
2024/01/09 09:31:49;;;;;;;19.98;12.85;;;;;;;-5.16;100.00;98245.88;4994499;28;20399;-77
2024/01/09 09:34:15;;;;;;;20.50;12.73;;;;;;;-5.22;100.00;98247.22;4993277;28;20437;-81
2024/01/09 09:36:41;;;;;;;22.65;13.30;;;;;;;-5.28;100.00;98239.19;4996304;28;20434;-80
2024/01/09 09:39:10;;;;;;;20.30;12.68;;;;;;;-5.35;100.00;98238.09;4987113;28;20489;-80
2024/01/09 09:41:37;;;;;;;23.85;13.63;;;;;;;-5.40;100.00;98240.22;4992234;28;20419;-80
2024/01/09 09:44:06;;;;;;;22.58;13.13;;;;;;;-5.42;100.00;98242.13;4991859;28;20474;-80
2024/01/09 09:46:34;;;;;;;30.52;16.73;;;;;;;-5.48;100.00;98233.13;4983775;28;20432;-80
2024/01/09 09:49:01;;;;;;;36.92;19.65;;;;;;;-5.52;100.00;98234.34;4990222;28;20442;-79
2024/01/09 09:51:27;;;;;;;26.83;16.60;;;;;;;-5.52;100.00;98234.34;4985466;28;20407;-80
2024/01/09 09:53:54;;;;;;;31.90;17.43;;;;;;;-5.50;100.00;98238.44;4991780;28;20458;-79
2024/01/09 09:56:22;;;;;;;29.63;16.87;;;;;;;-5.42;100.00;98232.63;4988993;28;20426;-79
2024/01/09 09:58:49;;;;;;;28.60;17.50;;;;;;;-5.02;100.00;98231.78;4990740;28;20407;-80
2024/01/09 10:01:17;;;;;;;21.00;13.95;;;;;;;-4.07;100.00;98236.19;4995198;28;20404;-80
2024/01/09 10:03:54;;;;;;;17.98;10.15;;;;;;;-2.69;100.00;98219.00;4993084;28;20918;-79
2024/01/09 10:06:21;;;;;;;26.60;7.67;;;;;;;-1.43;100.00;98225.47;4992929;28;20460;-79
2024/01/09 10:08:51;;;;;;;13.93;7.40;;;;;;;-0.40;100.00;98227.72;4995487;28;20411;-79
2024/01/09 10:11:17;;;;;;;9.98;7.88;;;;;;;0.44;100.00;98223.94;4993945;28;20452;-78
2024/01/09 10:13:45;;;;;;;11.63;8.03;;;;;;;1.11;100.00;98232.19;4986875;28;20408;-80
2024/01/09 10:16:11;;;;;;;12.05;7.95;;;;;;;1.64;100.00;98222.75;4990688;28;20507;-78
2024/01/09 10:18:37;;;;;;;11.43;8.20;;;;;;;2.12;100.00;98217.13;4984775;28;20413;-77
2024/01/09 10:21:05;;;;;;;11.32;8.35;;;;;;;2.60;100.00;98222.88;4988891;28;20804;-78
2024/01/09 10:23:34;;;;;;;11.70;8.20;;;;;;;2.98;100.00;98215.72;4983628;28;20400;-80
2024/01/09 10:26:02;;;;;;;12.75;8.63;;;;;;;3.34;100.00;98215.75;4982811;28;20964;-79
2024/01/09 10:28:28;;;;;;;12.48;8.85;;;;;;;3.63;100.00;98212.22;4984987;28;20408;-78
2024/01/09 10:30:56;;;;;;;13.60;9.47;;;;;;;3.95;100.00;98216.97;4992444;28;20407;-80
2024/01/09 10:33:22;;;;;;;10.90;7.97;;;;;;;4.27;100.00;98213.81;4993956;28;20406;-81
2024/01/09 10:35:49;;;;;;;12.93;8.95;;;;;;;4.61;100.00;98209.56;4983906;28;20427;-78
2024/01/09 10:38:23;;;;;;;11.75;8.80;;;;;;;4.98;100.00;98209.16;4977883;28;20459;-81
2024/01/09 10:40:55;;;;;;;14.52;9.00;;;;;;;5.23;100.00;98203.41;4985340;28;20452;-79
2024/01/09 10:43:23;;;;;;;12.50;8.77;;;;;;;5.43;100.00;98202.47;4997105;28;20934;-79
2024/01/09 10:45:52;;;;;;;13.43;8.93;;;;;;;5.62;100.00;98198.28;4998444;28;20410;-79
2024/01/09 10:48:21;;;;;;;13.98;9.30;;;;;;;5.82;100.00;98193.03;4998028;28;20414;-78
2024/01/09 10:50:50;;;;;;;12.63;8.82;;;;;;;6.07;100.00;98191.47;4996411;28;20453;-79
2024/01/09 10:53:17;;;;;;;13.60;9.02;;;;;;;6.36;100.00;98187.63;4996386;28;20403;-78
2024/01/09 10:55:44;;;;;;;13.25;8.57;;;;;;;6.57;100.00;98176.84;4996355;28;20454;-79
2024/01/09 10:58:11;;;;;;;13.73;8.10;;;;;;;6.74;100.00;98184.31;4998726;28;20417;-78
2024/01/09 11:00:39;;;;;;;14.32;8.90;;;;;;;6.81;100.00;98178.00;5003254;28;20898;-78
2024/01/09 11:03:07;;;;;;;13.23;8.27;;;;;;;6.84;100.00;98180.19;5000189;28;20883;-79
2024/01/09 11:05:35;;;;;;;12.05;7.57;;;;;;;6.81;100.00;98178.00;4999330;28;20406;-78
2024/01/09 11:08:03;;;;;;;12.03;8.13;;;;;;;6.73;100.00;98177.41;4998258;28;20403;-78
2024/01/09 11:10:30;;;;;;;13.90;8.18;;;;;;;6.66;100.00;98180.06;4998391;28;20406;-78